Aérodrome :
LOGIN :

S'inscrire | Disclaimer

   EN    FR    IT 

 










Légende :    VFR   VFR Marginal   IFR   IFR Intensif   IFR Très Intensif
Visi : 
Plafond : 
>= 8 km
>= 3000ft
5 à 8 km
1000 à 3000 ft
1500m à 5 km
500 à 1000 ft
800 à 1500m
200 à 500 ft
< 800m
< 200 ft
Symboles :   Orages  Brouillard  Fortes neiges  Fortes précipitations  Vent > 20 kt
SIGMETs :   Divers  Orages  Givrage  Turbulence  Onde Orograph.  Cendres Volcan.







- Altitude de l'aérodrome : 1017 ft
- Voir les cartes d'approche


LFSL - Brive Souillac

DERNIER METAR :
  • 222300Z AUTO VRB03KT 4700 -RA BR OVC006/// ///TCU 01/01 Q1003

METARs EXPIRÉS :
  • 222230Z AUTO 14003KT 110V220 5000 -RA BR OVC006/// ///TCU 01/01 Q1003
  • 222200Z AUTO 15004KT 130V190 4900 -RADZ BR BKN002/// OVC006/// ///TCU 01/00 Q1004
  • 222130Z AUTO 15005KT 100V200 4500 BR BKN002 OVC007 01/00 Q1004
  • 222100Z AUTO 15004KT 110V170 3300 BR VV/// 01/01 Q1005 TEMPO 2000 -RASN OVC002
  • 222030Z AUTO 12004KT 3400 BR VV/// 01/01 Q1005 TEMPO 2000 -RASN OVC002

TAF TAF LFSL
Valide du 22 à 18h jusqu'au 23 à 03h UTC


221700Z 2218/2303 VRB02KT 6000 OVC003
BECMG 2218/2219 3000 BR OVC002
TEMPO 2218/2222 0800 FG VV///
PROB30
TEMPO 2218/2222 0300
TEMPO 2222/2302 2000 -RASN OVC002
TEMPO 2302/2303 0500 FG VV///
Pas de NOTAMs connus pour ce terrain.



MET'MAP, la Météo Aéronautique d'un coup d'oeil ! - Copyright ORBIFLY Décembre 2007 - Disclaimer

ORBIFLY MET'MAP TEAM :

Programmation & Développement : Alexandra Zaïnal
Conception & Développement : Baudouin d'Aumeries
Co-Programmation & Développement : Marc-Olivier Méhu
Soutien technique & logistique : Manuel Goepfert

Contact : metmap@orbifly.com




SOURCES & CREDITS :

   NOAA